Weather at Osijek Airport

Public forecast

Using degrees Celsius for public forecast. Weather courtesy of forecast.io.

Current aviation weather report (METAR) for Osijek Airport

2022/11/30 06:30 (retrieved 21 minutes ago)

LDOS 300630Z 03009KT 9999 BKN027 03/02 Q1021

Aviation forecast (TAF) for Osijek Airport

2022/11/30 06:27 (retrieved 24 minutes ago)

TAF LDOS 300525Z 3006/0106 09012KT 8000 BKN020 TX06/3012Z TN03/3006Z PROB40 TEMPO 3006/3015 OVC008 PROB30 TEMPO 3018/0100 RA